Decoded Metar for LELL (SABADELL in SPAIN) (IATA:QSA) | Meteo·Mobile Aviation Weather
aviador You're here:

LELL Decoded Metar

SABADELL in SPAIN
Report Time2018-10-20 13:00:00
UTC Time2018-10-20 13:22:52
Flight Rules vfr VFR
Wind100° at 06 kt
W.Decomp.*RWY 13: 5.2 kt HW 3 kt LCW
W.Rank100° ranks 18
Current wind is above 100° avg. (5.8)
Visibility9999 m
Phenomena:N/A
Clouds:Few 040 Hf
Expected CloudBase > 4,400 ft AGL from Temp-Dew spread
CeilingNone
Temp25°C (ISA +11)
Dew Point14°C (51% RH)
AAT24.2°C
QNH1022 hPa
Density Alt1,667 ft
Elevation485 ft
Report Wrong Elevation
Raw Report
LELL 201300Z 10006KT 050V150 9999 FEW040 25/14 Q1022=

Extra information for LELL:More info

Metar Taf Metar & Taf Last 4 Metars F.Rules Stats Wind Profile Meteogram Temp Stats Airport Information Weather charts Add Link Nearby VenuesMetar ALERT Operation Metar Decoded Social comments

Aeroclub BS Web Page